sensor_id;sensor_type;location;lat;lon;timestamp;temperature;humidity
52609;DHT22;38503;48.544;12.142;2022-11-15T00:00:55;2.80;99.90
52609;DHT22;38503;48.544;12.142;2022-11-15T00:03:26;2.80;99.90
52609;DHT22;38503;48.544;12.142;2022-11-15T00:05:53;2.70;99.90
52609;DHT22;38503;48.544;12.142;2022-11-15T00:08:20;2.70;99.90
52609;DHT22;38503;48.544;12.142;2022-11-15T00:10:57;2.70;99.90
52609;DHT22;38503;48.544;12.142;2022-11-15T00:13:25;2.70;99.90
52609;DHT22;38503;48.544;12.142;2022-11-15T00:15:52;2.60;99.90
52609;DHT22;38503;48.544;12.142;2022-11-15T00:18:19;2.60;99.90
52609;DHT22;38503;48.544;12.142;2022-11-15T00:20:45;2.60;99.90
52609;DHT22;38503;48.544;12.142;2022-11-15T00:23:12;2.60;99.90
52609;DHT22;38503;48.544;12.142;2022-11-15T00:25:39;2.50;99.90
52609;DHT22;38503;48.544;12.142;2022-11-15T00:28:06;2.50;99.90
52609;DHT22;38503;48.544;12.142;2022-11-15T00:30:33;2.50;99.90
52609;DHT22;38503;48.544;12.142;2022-11-15T00:33:05;2.50;99.90
52609;DHT22;38503;48.544;12.142;2022-11-15T00:35:33;2.50;99.90
52609;DHT22;38503;48.544;12.142;2022-11-15T00:38:00;2.50;99.90
52609;DHT22;38503;48.544;12.142;2022-11-15T00:40:28;2.50;99.90
52609;DHT22;38503;48.544;12.142;2022-11-15T00:42:55;2.40;99.90
52609;DHT22;38503;48.544;12.142;2022-11-15T00:45:22;2.50;99.90
52609;DHT22;38503;48.544;12.142;2022-11-15T00:47:49;2.40;99.90
52609;DHT22;38503;48.544;12.142;2022-11-15T00:50:16;2.50;99.90
52609;DHT22;38503;48.544;12.142;2022-11-15T00:52:43;2.40;99.90
52609;DHT22;38503;48.544;12.142;2022-11-15T00:55:17;2.40;99.90
52609;DHT22;38503;48.544;12.142;2022-11-15T00:57:46;2.30;99.90
52609;DHT22;38503;48.544;12.142;2022-11-15T01:00:13;2.30;99.90
52609;DHT22;38503;48.544;12.142;2022-11-15T01:02:40;2.30;99.90
52609;DHT22;38503;48.544;12.142;2022-11-15T01:05:07;2.30;99.90
52609;DHT22;38503;48.544;12.142;2022-11-15T01:07:34;2.20;99.90
52609;DHT22;38503;48.544;12.142;2022-11-15T01:10:02;2.30;99.90
52609;DHT22;38503;48.544;12.142;2022-11-15T01:12:29;2.20;99.90
52609;DHT22;38503;48.544;12.142;2022-11-15T01:14:56;2.20;99.90
52609;DHT22;38503;48.544;12.142;2022-11-15T01:17:23;2.10;99.90
52609;DHT22;38503;48.544;12.142;2022-11-15T01:19:50;2.00;99.90
52609;DHT22;38503;48.544;12.142;2022-11-15T01:22:17;1.90;99.90
52609;DHT22;38503;48.544;12.142;2022-11-15T01:24:44;2.00;99.90
52609;DHT22;38503;48.544;12.142;2022-11-15T01:27:10;2.00;99.90
52609;DHT22;38503;48.544;12.142;2022-11-15T01:29:37;2.00;99.90
52609;DHT22;38503;48.544;12.142;2022-11-15T01:32:04;1.90;99.90
52609;DHT22;38503;48.544;12.142;2022-11-15T01:34:31;1.90;99.90
52609;DHT22;38503;48.544;12.142;2022-11-15T01:36:58;1.90;99.90
52609;DHT22;38503;48.544;12.142;2022-11-15T01:39:25;1.90;99.90
52609;DHT22;38503;48.544;12.142;2022-11-15T01:41:53;1.80;99.90
52609;DHT22;38503;48.544;12.142;2022-11-15T01:47:04;1.90;99.90
52609;DHT22;38503;48.544;12.142;2022-11-15T01:49:35;2.00;99.90
52609;DHT22;38503;48.544;12.142;2022-11-15T01:52:07;1.90;99.90
52609;DHT22;38503;48.544;12.142;2022-11-15T01:54:35;1.90;99.90
52609;DHT22;38503;48.544;12.142;2022-11-15T01:57:07;1.90;99.90
52609;DHT22;38503;48.544;12.142;2022-11-15T01:59:38;1.80;99.90
52609;DHT22;38503;48.544;12.142;2022-11-15T02:02:06;1.90;99.90
52609;DHT22;38503;48.544;12.142;2022-11-15T02:04:37;1.80;99.90
52609;DHT22;38503;48.544;12.142;2022-11-15T02:07:09;1.70;99.90
52609;DHT22;38503;48.544;12.142;2022-11-15T02:09:37;1.70;99.90
52609;DHT22;38503;48.544;12.142;2022-11-15T02:12:06;1.70;99.90
52609;DHT22;38503;48.544;12.142;2022-11-15T02:14:36;1.70;99.90
52609;DHT22;38503;48.544;12.142;2022-11-15T02:28:22;1.60;99.90
52609;DHT22;38503;48.544;12.142;2022-11-15T02:33:43;1.60;99.90
52609;DHT22;38503;48.544;12.142;2022-11-15T02:41:53;1.50;99.90
52609;DHT22;38503;48.544;12.142;2022-11-15T02:44:31;1.50;99.90
52609;DHT22;38503;48.544;12.142;2022-11-15T02:47:01;1.50;99.90
52609;DHT22;38503;48.544;12.142;2022-11-15T02:49:46;1.50;99.90
52609;DHT22;38503;48.544;12.142;2022-11-15T02:52:18;1.50;99.90
52609;DHT22;38503;48.544;12.142;2022-11-15T02:54:55;1.60;99.90
52609;DHT22;38503;48.544;12.142;2022-11-15T03:02:42;2.30;99.90
52609;DHT22;38503;48.544;12.142;2022-11-15T03:05:37;2.00;99.90
52609;DHT22;38503;48.544;12.142;2022-11-15T03:11:03;1.80;99.90
52609;DHT22;38503;48.544;12.142;2022-11-15T03:13:36;1.70;99.90
52609;DHT22;38503;48.544;12.142;2022-11-15T03:21:31;1.50;99.90
52609;DHT22;38503;48.544;12.142;2022-11-15T03:24:03;1.60;99.90
52609;DHT22;38503;48.544;12.142;2022-11-15T03:26:33;1.60;99.90
52609;DHT22;38503;48.544;12.142;2022-11-15T03:29:12;1.60;99.90
52609;DHT22;38503;48.544;12.142;2022-11-15T03:31:45;1.50;99.90
52609;DHT22;38503;48.544;12.142;2022-11-15T03:36:47;1.40;99.90
52609;DHT22;38503;48.544;12.142;2022-11-15T03:39:14;1.50;99.90
52609;DHT22;38503;48.544;12.142;2022-11-15T03:44:42;1.50;99.90
52609;DHT22;38503;48.544;12.142;2022-11-15T03:49:52;1.50;99.90
52609;DHT22;38503;48.544;12.142;2022-11-15T03:52:21;1.50;99.90
52609;DHT22;38503;48.544;12.142;2022-11-15T03:54:54;1.40;99.90
52609;DHT22;38503;48.544;12.142;2022-11-15T03:57:21;1.40;99.90
52609;DHT22;38503;48.544;12.142;2022-11-15T03:59:48;1.40;99.90
52609;DHT22;38503;48.544;12.142;2022-11-15T04:02:15;1.40;99.90
52609;DHT22;38503;48.544;12.142;2022-11-15T04:04:42;1.40;99.90
52609;DHT22;38503;48.544;12.142;2022-11-15T04:07:09;1.30;99.90
52609;DHT22;38503;48.544;12.142;2022-11-15T04:09:36;1.20;99.90
52609;DHT22;38503;48.544;12.142;2022-11-15T04:12:25;1.20;99.90
52609;DHT22;38503;48.544;12.142;2022-11-15T04:15:04;1.20;99.90
52609;DHT22;38503;48.544;12.142;2022-11-15T04:17:44;1.10;99.90
52609;DHT22;38503;48.544;12.142;2022-11-15T04:20:17;1.10;99.90
52609;DHT22;38503;48.544;12.142;2022-11-15T04:23:05;1.10;99.90
52609;DHT22;38503;48.544;12.142;2022-11-15T04:25:53;1.10;99.90
52609;DHT22;38503;48.544;12.142;2022-11-15T04:28:21;1.10;99.90
52609;DHT22;38503;48.544;12.142;2022-11-15T04:30:48;1.00;99.90
52609;DHT22;38503;48.544;12.142;2022-11-15T04:33:15;1.00;99.90
52609;DHT22;38503;48.544;12.142;2022-11-15T04:35:42;1.00;99.90
52609;DHT22;38503;48.544;12.142;2022-11-15T04:38:10;1.00;99.90
52609;DHT22;38503;48.544;12.142;2022-11-15T04:40:37;1.00;99.90
52609;DHT22;38503;48.544;12.142;2022-11-15T04:43:04;1.00;99.90
52609;DHT22;38503;48.544;12.142;2022-11-15T04:45:31;1.10;99.90
52609;DHT22;38503;48.544;12.142;2022-11-15T04:47:58;1.10;99.90
52609;DHT22;38503;48.544;12.142;2022-11-15T04:50:25;1.00;99.90
52609;DHT22;38503;48.544;12.142;2022-11-15T04:52:53;1.00;99.90
52609;DHT22;38503;48.544;12.142;2022-11-15T04:55:21;1.10;99.90
52609;DHT22;38503;48.544;12.142;2022-11-15T04:58:01;1.00;99.90
52609;DHT22;38503;48.544;12.142;2022-11-15T05:00:29;0.90;99.90
52609;DHT22;38503;48.544;12.142;2022-11-15T05:02:57;0.90;99.90
52609;DHT22;38503;48.544;12.142;2022-11-15T05:05:42;1.00;99.90
52609;DHT22;38503;48.544;12.142;2022-11-15T05:08:09;1.00;99.90
52609;DHT22;38503;48.544;12.142;2022-11-15T05:10:39;1.10;99.90
52609;DHT22;38503;48.544;12.142;2022-11-15T05:13:05;1.20;99.90
52609;DHT22;38503;48.544;12.142;2022-11-15T05:15:32;1.30;99.90
52609;DHT22;38503;48.544;12.142;2022-11-15T05:17:59;1.30;99.90
52609;DHT22;38503;48.544;12.142;2022-11-15T05:20:27;1.30;99.90
52609;DHT22;38503;48.544;12.142;2022-11-15T05:22:54;1.20;99.90
52609;DHT22;38503;48.544;12.142;2022-11-15T05:25:22;1.20;99.90
52609;DHT22;38503;48.544;12.142;2022-11-15T05:27:49;1.20;99.90
52609;DHT22;38503;48.544;12.142;2022-11-15T05:30:16;1.20;99.90
52609;DHT22;38503;48.544;12.142;2022-11-15T05:32:43;1.10;99.90
52609;DHT22;38503;48.544;12.142;2022-11-15T05:35:20;1.10;99.90
52609;DHT22;38503;48.544;12.142;2022-11-15T05:37:48;1.10;99.90
52609;DHT22;38503;48.544;12.142;2022-11-15T05:40:16;1.10;99.90
52609;DHT22;38503;48.544;12.142;2022-11-15T05:42:42;1.10;99.90
52609;DHT22;38503;48.544;12.142;2022-11-15T05:45:11;1.10;99.90
52609;DHT22;38503;48.544;12.142;2022-11-15T05:47:39;1.00;99.90
52609;DHT22;38503;48.544;12.142;2022-11-15T05:50:07;1.00;99.90
52609;DHT22;38503;48.544;12.142;2022-11-15T05:52:39;1.00;99.90
52609;DHT22;38503;48.544;12.142;2022-11-15T05:55:07;0.90;99.90
52609;DHT22;38503;48.544;12.142;2022-11-15T05:57:35;0.90;99.90
52609;DHT22;38503;48.544;12.142;2022-11-15T06:00:04;0.90;99.90
52609;DHT22;38503;48.544;12.142;2022-11-15T06:02:31;0.90;99.90
52609;DHT22;38503;48.544;12.142;2022-11-15T06:04:58;0.90;99.90
52609;DHT22;38503;48.544;12.142;2022-11-15T06:07:24;0.90;99.90
52609;DHT22;38503;48.544;12.142;2022-11-15T06:09:51;0.90;99.90
52609;DHT22;38503;48.544;12.142;2022-11-15T06:12:18;0.80;99.90
52609;DHT22;38503;48.544;12.142;2022-11-15T06:14:45;0.80;99.90
52609;DHT22;38503;48.544;12.142;2022-11-15T06:17:12;0.80;99.90
52609;DHT22;38503;48.544;12.142;2022-11-15T06:19:39;0.80;99.90
52609;DHT22;38503;48.544;12.142;2022-11-15T06:22:06;0.80;99.90
52609;DHT22;38503;48.544;12.142;2022-11-15T06:24:33;0.80;99.90
52609;DHT22;38503;48.544;12.142;2022-11-15T06:27:00;0.80;99.90
52609;DHT22;38503;48.544;12.142;2022-11-15T06:29:26;0.80;99.90
52609;DHT22;38503;48.544;12.142;2022-11-15T06:31:53;0.80;99.90
52609;DHT22;38503;48.544;12.142;2022-11-15T06:34:20;0.90;99.90
52609;DHT22;38503;48.544;12.142;2022-11-15T06:36:47;0.90;99.90
52609;DHT22;38503;48.544;12.142;2022-11-15T06:39:14;1.60;99.90
52609;DHT22;38503;48.544;12.142;2022-11-15T06:41:40;1.40;99.90
52609;DHT22;38503;48.544;12.142;2022-11-15T06:44:07;1.40;99.90
52609;DHT22;38503;48.544;12.142;2022-11-15T06:46:34;1.30;99.90
52609;DHT22;38503;48.544;12.142;2022-11-15T06:49:01;1.40;99.90
52609;DHT22;38503;48.544;12.142;2022-11-15T06:51:35;1.40;99.90
52609;DHT22;38503;48.544;12.142;2022-11-15T06:54:02;1.60;99.90
52609;DHT22;38503;48.544;12.142;2022-11-15T06:56:29;1.60;99.90
52609;DHT22;38503;48.544;12.142;2022-11-15T06:58:56;1.60;99.90
52609;DHT22;38503;48.544;12.142;2022-11-15T07:01:22;1.60;99.90
52609;DHT22;38503;48.544;12.142;2022-11-15T07:03:51;1.60;99.90
52609;DHT22;38503;48.544;12.142;2022-11-15T07:06:18;1.70;99.90
52609;DHT22;38503;48.544;12.142;2022-11-15T07:08:45;1.80;99.90
52609;DHT22;38503;48.544;12.142;2022-11-15T07:11:12;1.80;99.90
52609;DHT22;38503;48.544;12.142;2022-11-15T07:13:39;1.70;99.90
52609;DHT22;38503;48.544;12.142;2022-11-15T07:16:08;1.90;99.90
52609;DHT22;38503;48.544;12.142;2022-11-15T07:18:38;2.20;99.90
52609;DHT22;38503;48.544;12.142;2022-11-15T07:21:08;2.10;99.90
52609;DHT22;38503;48.544;12.142;2022-11-15T07:23:38;2.30;99.90
52609;DHT22;38503;48.544;12.142;2022-11-15T07:26:06;2.50;99.90
52609;DHT22;38503;48.544;12.142;2022-11-15T07:28:34;4.00;99.90
52609;DHT22;38503;48.544;12.142;2022-11-15T07:31:03;5.50;99.90
52609;DHT22;38503;48.544;12.142;2022-11-15T07:33:30;6.60;99.90
52609;DHT22;38503;48.544;12.142;2022-11-15T07:36:02;7.30;99.90
52609;DHT22;38503;48.544;12.142;2022-11-15T07:38:29;8.00;99.90
52609;DHT22;38503;48.544;12.142;2022-11-15T07:40:58;8.50;99.90
52609;DHT22;38503;48.544;12.142;2022-11-15T07:43:26;9.20;99.90
52609;DHT22;38503;48.544;12.142;2022-11-15T07:45:55;9.70;99.90
52609;DHT22;38503;48.544;12.142;2022-11-15T07:48:25;10.20;99.90
52609;DHT22;38503;48.544;12.142;2022-11-15T07:51:11;10.10;99.90
52609;DHT22;38503;48.544;12.142;2022-11-15T07:53:40;10.40;99.90
52609;DHT22;38503;48.544;12.142;2022-11-15T07:56:07;10.80;99.90
52609;DHT22;38503;48.544;12.142;2022-11-15T07:58:35;10.90;99.30
52609;DHT22;38503;48.544;12.142;2022-11-15T08:01:07;11.80;97.70
52609;DHT22;38503;48.544;12.142;2022-11-15T08:03:35;12.00;96.50
52609;DHT22;38503;48.544;12.142;2022-11-15T08:06:02;12.10;96.50
52609;DHT22;38503;48.544;12.142;2022-11-15T08:08:29;11.50;96.30
52609;DHT22;38503;48.544;12.142;2022-11-15T08:10:58;11.40;96.60
52609;DHT22;38503;48.544;12.142;2022-11-15T08:13:25;11.30;96.60
52609;DHT22;38503;48.544;12.142;2022-11-15T08:16:01;12.00;96.70
52609;DHT22;38503;48.544;12.142;2022-11-15T08:18:28;11.70;96.50
52609;DHT22;38503;48.544;12.142;2022-11-15T08:20:59;12.70;96.00
52609;DHT22;38503;48.544;12.142;2022-11-15T08:23:26;12.70;94.70
52609;DHT22;38503;48.544;12.142;2022-11-15T08:26:02;12.10;95.10
52609;DHT22;38503;48.544;12.142;2022-11-15T08:28:31;11.30;96.50
52609;DHT22;38503;48.544;12.142;2022-11-15T08:30:58;11.40;97.10
52609;DHT22;38503;48.544;12.142;2022-11-15T08:33:25;11.50;97.70
52609;DHT22;38503;48.544;12.142;2022-11-15T08:35:52;11.80;96.80
52609;DHT22;38503;48.544;12.142;2022-11-15T08:38:18;11.70;96.50
52609;DHT22;38503;48.544;12.142;2022-11-15T08:40:45;11.50;96.90
52609;DHT22;38503;48.544;12.142;2022-11-15T08:43:12;11.70;96.90
52609;DHT22;38503;48.544;12.142;2022-11-15T08:45:39;12.10;96.40
52609;DHT22;38503;48.544;12.142;2022-11-15T08:48:06;12.30;96.90
52609;DHT22;38503;48.544;12.142;2022-11-15T08:50:33;12.30;95.80
52609;DHT22;38503;48.544;12.142;2022-11-15T08:53:07;12.40;95.60
52609;DHT22;38503;48.544;12.142;2022-11-15T08:55:38;12.80;96.20
52609;DHT22;38503;48.544;12.142;2022-11-15T08:58:06;12.70;95.80
52609;DHT22;38503;48.544;12.142;2022-11-15T09:00:33;12.50;96.30
52609;DHT22;38503;48.544;12.142;2022-11-15T09:03:04;12.50;95.90
52609;DHT22;38503;48.544;12.142;2022-11-15T09:05:35;13.00;96.50
52609;DHT22;38503;48.544;12.142;2022-11-15T09:08:03;13.40;96.20
52609;DHT22;38503;48.544;12.142;2022-11-15T09:10:50;13.30;95.50
52609;DHT22;38503;48.544;12.142;2022-11-15T09:13:17;14.00;94.60
52609;DHT22;38503;48.544;12.142;2022-11-15T09:15:45;13.40;95.20
52609;DHT22;38503;48.544;12.142;2022-11-15T09:18:11;13.50;95.80
52609;DHT22;38503;48.544;12.142;2022-11-15T09:20:38;13.90;94.80
52609;DHT22;38503;48.544;12.142;2022-11-15T09:23:07;13.70;94.40
52609;DHT22;38503;48.544;12.142;2022-11-15T09:25:34;12.70;96.50
52609;DHT22;38503;48.544;12.142;2022-11-15T09:28:06;12.70;96.80
52609;DHT22;38503;48.544;12.142;2022-11-15T09:30:33;12.90;97.50
52609;DHT22;38503;48.544;12.142;2022-11-15T09:33:07;12.90;98.10
52609;DHT22;38503;48.544;12.142;2022-11-15T09:35:34;13.00;97.60
52609;DHT22;38503;48.544;12.142;2022-11-15T09:38:02;13.10;96.80
52609;DHT22;38503;48.544;12.142;2022-11-15T09:40:31;13.60;97.20
52609;DHT22;38503;48.544;12.142;2022-11-15T09:48:58;15.10;94.60
52609;DHT22;38503;48.544;12.142;2022-11-15T09:51:30;14.30;95.40
52609;DHT22;38503;48.544;12.142;2022-11-15T09:56:56;15.30;94.60
52609;DHT22;38503;48.544;12.142;2022-11-15T10:05:01;15.80;95.00
52609;DHT22;38503;48.544;12.142;2022-11-15T10:07:40;16.00;94.10
52609;DHT22;38503;48.544;12.142;2022-11-15T10:12:54;15.90;95.00
52609;DHT22;38503;48.544;12.142;2022-11-15T10:15:22;16.20;94.50
52609;DHT22;38503;48.544;12.142;2022-11-15T10:18:15;15.60;94.70
52609;DHT22;38503;48.544;12.142;2022-11-15T10:20:57;15.80;95.20
52609;DHT22;38503;48.544;12.142;2022-11-15T10:23:25;15.80;95.50
52609;DHT22;38503;48.544;12.142;2022-11-15T10:25:58;15.30;95.90
52609;DHT22;38503;48.544;12.142;2022-11-15T10:28:32;15.60;95.70
52609;DHT22;38503;48.544;12.142;2022-11-15T10:31:00;15.10;96.70
52609;DHT22;38503;48.544;12.142;2022-11-15T10:33:36;14.80;97.60
52609;DHT22;38503;48.544;12.142;2022-11-15T10:41:28;16.70;96.00
52609;DHT22;38503;48.544;12.142;2022-11-15T10:44:18;16.80;94.90
52609;DHT22;38503;48.544;12.142;2022-11-15T10:47:05;16.90;94.80
52609;DHT22;38503;48.544;12.142;2022-11-15T10:49:34;17.20;93.90
52609;DHT22;38503;48.544;12.142;2022-11-15T10:52:20;16.80;94.60
52609;DHT22;38503;48.544;12.142;2022-11-15T10:54:55;17.70;94.40
52609;DHT22;38503;48.544;12.142;2022-11-15T10:57:29;17.00;94.60
52609;DHT22;38503;48.544;12.142;2022-11-15T10:59:58;17.20;94.60
52609;DHT22;38503;48.544;12.142;2022-11-15T11:05:37;17.00;94.30
52609;DHT22;38503;48.544;12.142;2022-11-15T11:10:52;17.60;94.40
52609;DHT22;38503;48.544;12.142;2022-11-15T11:13:33;17.50;94.20
52609;DHT22;38503;48.544;12.142;2022-11-15T11:16:22;17.50;94.70
52609;DHT22;38503;48.544;12.142;2022-11-15T11:21:55;17.80;93.60
52609;DHT22;38503;48.544;12.142;2022-11-15T11:24:41;17.50;93.90
52609;DHT22;38503;48.544;12.142;2022-11-15T11:27:40;18.20;93.80
52609;DHT22;38503;48.544;12.142;2022-11-15T11:33:24;18.30;93.80
52609;DHT22;38503;48.544;12.142;2022-11-15T11:41:50;20.30;90.80
52609;DHT22;38503;48.544;12.142;2022-11-15T11:47:32;20.70;90.40
52609;DHT22;38503;48.544;12.142;2022-11-15T11:50:15;21.60;89.00
52609;DHT22;38503;48.544;12.142;2022-11-15T11:55:33;21.70;87.20
52609;DHT22;38503;48.544;12.142;2022-11-15T11:58:17;20.50;86.60
52609;DHT22;38503;48.544;12.142;2022-11-15T12:00:56;19.70;89.00
52609;DHT22;38503;48.544;12.142;2022-11-15T12:03:41;21.00;89.60
52609;DHT22;38503;48.544;12.142;2022-11-15T12:17:02;18.00;93.00
52609;DHT22;38503;48.544;12.142;2022-11-15T12:19:29;16.90;94.40
52609;DHT22;38503;48.544;12.142;2022-11-15T12:22:46;16.20;95.10
52609;DHT22;38503;48.544;12.142;2022-11-15T12:25:27;15.90;97.70
52609;DHT22;38503;48.544;12.142;2022-11-15T12:30:54;15.40;99.90
52609;DHT22;38503;48.544;12.142;2022-11-15T12:33:33;15.10;99.90
52609;DHT22;38503;48.544;12.142;2022-11-15T12:36:03;14.80;99.90
52609;DHT22;38503;48.544;12.142;2022-11-15T12:39:05;15.10;99.90
52609;DHT22;38503;48.544;12.142;2022-11-15T12:41:38;15.10;99.90
52609;DHT22;38503;48.544;12.142;2022-11-15T12:44:15;15.30;99.90
52609;DHT22;38503;48.544;12.142;2022-11-15T12:47:03;14.90;99.90
52609;DHT22;38503;48.544;12.142;2022-11-15T12:52:06;14.70;99.90
52609;DHT22;38503;48.544;12.142;2022-11-15T12:54:51;14.70;99.90
52609;DHT22;38503;48.544;12.142;2022-11-15T12:57:30;14.70;99.90
52609;DHT22;38503;48.544;12.142;2022-11-15T12:59:58;14.60;99.90
52609;DHT22;38503;48.544;12.142;2022-11-15T13:02:37;14.50;99.90
52609;DHT22;38503;48.544;12.142;2022-11-15T13:13:02;14.40;99.90
52609;DHT22;38503;48.544;12.142;2022-11-15T13:15:38;14.30;99.90
52609;DHT22;38503;48.544;12.142;2022-11-15T13:18:39;14.10;99.90
52609;DHT22;38503;48.544;12.142;2022-11-15T13:21:20;14.20;99.90
52609;DHT22;38503;48.544;12.142;2022-11-15T13:24:15;14.20;99.90
52609;DHT22;38503;48.544;12.142;2022-11-15T13:26:42;14.30;99.90
52609;DHT22;38503;48.544;12.142;2022-11-15T13:29:18;14.20;99.90
52609;DHT22;38503;48.544;12.142;2022-11-15T13:31:46;14.00;99.90
52609;DHT22;38503;48.544;12.142;2022-11-15T13:34:30;13.90;99.90
52609;DHT22;38503;48.544;12.142;2022-11-15T13:39:48;13.80;99.90
52609;DHT22;38503;48.544;12.142;2022-11-15T13:42:17;13.70;99.90
52609;DHT22;38503;48.544;12.142;2022-11-15T13:44:56;13.60;99.90
52609;DHT22;38503;48.544;12.142;2022-11-15T13:47:26;13.60;99.90
52609;DHT22;38503;48.544;12.142;2022-11-15T13:49:59;13.70;99.90
52609;DHT22;38503;48.544;12.142;2022-11-15T13:52:31;13.60;99.90
52609;DHT22;38503;48.544;12.142;2022-11-15T13:55:02;13.60;99.90
52609;DHT22;38503;48.544;12.142;2022-11-15T13:57:42;13.70;99.90
52609;DHT22;38503;48.544;12.142;2022-11-15T14:03:21;14.30;99.90
52609;DHT22;38503;48.544;12.142;2022-11-15T14:06:09;14.50;99.90
52609;DHT22;38503;48.544;12.142;2022-11-15T14:08:40;14.20;99.90
52609;DHT22;38503;48.544;12.142;2022-11-15T14:11:19;13.90;99.90
52609;DHT22;38503;48.544;12.142;2022-11-15T14:16:38;13.60;99.90
52609;DHT22;38503;48.544;12.142;2022-11-15T14:19:06;13.40;99.90
52609;DHT22;38503;48.544;12.142;2022-11-15T14:21:33;13.30;99.90
52609;DHT22;38503;48.544;12.142;2022-11-15T14:24:20;13.20;99.90
52609;DHT22;38503;48.544;12.142;2022-11-15T14:26:47;13.20;99.90
52609;DHT22;38503;48.544;12.142;2022-11-15T14:29:25;13.30;99.90
52609;DHT22;38503;48.544;12.142;2022-11-15T14:31:54;13.20;99.90
52609;DHT22;38503;48.544;12.142;2022-11-15T14:34:32;13.10;99.90
52609;DHT22;38503;48.544;12.142;2022-11-15T14:36:59;12.90;99.90
52609;DHT22;38503;48.544;12.142;2022-11-15T14:39:26;12.90;99.90
52609;DHT22;38503;48.544;12.142;2022-11-15T14:41:52;12.70;99.90
52609;DHT22;38503;48.544;12.142;2022-11-15T14:44:19;12.80;99.90
52609;DHT22;38503;48.544;12.142;2022-11-15T14:46:48;12.70;99.90
52609;DHT22;38503;48.544;12.142;2022-11-15T14:49:15;12.70;99.90
52609;DHT22;38503;48.544;12.142;2022-11-15T14:51:42;12.70;99.90
52609;DHT22;38503;48.544;12.142;2022-11-15T14:54:10;12.80;99.90
52609;DHT22;38503;48.544;12.142;2022-11-15T14:56:37;12.70;99.90
52609;DHT22;38503;48.544;12.142;2022-11-15T14:59:04;12.60;99.90
52609;DHT22;38503;48.544;12.142;2022-11-15T15:01:31;12.50;99.90
52609;DHT22;38503;48.544;12.142;2022-11-15T15:03:58;12.40;99.90
52609;DHT22;38503;48.544;12.142;2022-11-15T15:06:26;12.30;99.90
52609;DHT22;38503;48.544;12.142;2022-11-15T15:08:53;12.30;99.90
52609;DHT22;38503;48.544;12.142;2022-11-15T15:11:28;12.20;99.90
52609;DHT22;38503;48.544;12.142;2022-11-15T15:13:55;12.00;99.90
52609;DHT22;38503;48.544;12.142;2022-11-15T15:16:24;11.80;99.90
52609;DHT22;38503;48.544;12.142;2022-11-15T15:18:51;11.70;99.90
52609;DHT22;38503;48.544;12.142;2022-11-15T15:21:27;11.60;99.90
52609;DHT22;38503;48.544;12.142;2022-11-15T15:24:01;11.50;99.90
52609;DHT22;38503;48.544;12.142;2022-11-15T15:26:28;11.40;99.90
52609;DHT22;38503;48.544;12.142;2022-11-15T15:28:55;11.30;99.90
52609;DHT22;38503;48.544;12.142;2022-11-15T15:31:22;11.10;99.90
52609;DHT22;38503;48.544;12.142;2022-11-15T15:33:49;10.90;99.90
52609;DHT22;38503;48.544;12.142;2022-11-15T15:36:18;10.90;99.90
52609;DHT22;38503;48.544;12.142;2022-11-15T15:38:45;10.90;99.90
52609;DHT22;38503;48.544;12.142;2022-11-15T15:41:16;10.80;99.90
52609;DHT22;38503;48.544;12.142;2022-11-15T15:43:43;10.80;99.90
52609;DHT22;38503;48.544;12.142;2022-11-15T15:46:18;10.60;99.90
52609;DHT22;38503;48.544;12.142;2022-11-15T15:48:46;10.40;99.90
52609;DHT22;38503;48.544;12.142;2022-11-15T15:51:13;10.20;99.90
52609;DHT22;38503;48.544;12.142;2022-11-15T15:53:46;10.00;99.90
52609;DHT22;38503;48.544;12.142;2022-11-15T15:56:14;10.00;99.90
52609;DHT22;38503;48.544;12.142;2022-11-15T15:58:41;9.90;99.90
52609;DHT22;38503;48.544;12.142;2022-11-15T16:01:07;10.00;99.90
52609;DHT22;38503;48.544;12.142;2022-11-15T16:03:35;9.90;99.90
52609;DHT22;38503;48.544;12.142;2022-11-15T16:06:02;9.80;99.90
52609;DHT22;38503;48.544;12.142;2022-11-15T16:08:30;9.80;99.90
52609;DHT22;38503;48.544;12.142;2022-11-15T16:11:17;9.60;99.90
52609;DHT22;38503;48.544;12.142;2022-11-15T16:13:44;9.50;99.90
52609;DHT22;38503;48.544;12.142;2022-11-15T16:16:13;9.40;99.90
52609;DHT22;38503;48.544;12.142;2022-11-15T16:18:40;9.40;99.90
52609;DHT22;38503;48.544;12.142;2022-11-15T16:21:08;9.30;99.90
52609;DHT22;38503;48.544;12.142;2022-11-15T16:23:35;9.20;99.90
52609;DHT22;38503;48.544;12.142;2022-11-15T16:26:02;9.10;99.90
52609;DHT22;38503;48.544;12.142;2022-11-15T16:28:32;9.00;99.90
52609;DHT22;38503;48.544;12.142;2022-11-15T16:31:09;8.90;99.90
52609;DHT22;38503;48.544;12.142;2022-11-15T16:33:36;8.80;99.90
52609;DHT22;38503;48.544;12.142;2022-11-15T16:36:05;8.80;99.90
52609;DHT22;38503;48.544;12.142;2022-11-15T16:38:33;8.80;99.90
52609;DHT22;38503;48.544;12.142;2022-11-15T16:41:00;8.80;99.90
52609;DHT22;38503;48.544;12.142;2022-11-15T16:43:27;8.60;99.90
52609;DHT22;38503;48.544;12.142;2022-11-15T16:45:54;8.50;99.90
52609;DHT22;38503;48.544;12.142;2022-11-15T16:48:26;8.40;99.90
52609;DHT22;38503;48.544;12.142;2022-11-15T16:50:59;8.30;99.90
52609;DHT22;38503;48.544;12.142;2022-11-15T16:53:27;8.30;99.90
52609;DHT22;38503;48.544;12.142;2022-11-15T16:55:54;8.30;99.90
52609;DHT22;38503;48.544;12.142;2022-11-15T16:58:21;8.20;99.90
52609;DHT22;38503;48.544;12.142;2022-11-15T17:00:55;8.10;99.90
52609;DHT22;38503;48.544;12.142;2022-11-15T17:03:23;8.10;99.90
52609;DHT22;38503;48.544;12.142;2022-11-15T17:05:50;8.20;99.90
52609;DHT22;38503;48.544;12.142;2022-11-15T17:08:17;8.10;99.90
52609;DHT22;38503;48.544;12.142;2022-11-15T17:10:47;8.10;99.90
52609;DHT22;38503;48.544;12.142;2022-11-15T17:13:14;8.00;99.90
52609;DHT22;38503;48.544;12.142;2022-11-15T17:15:41;7.90;99.90
52609;DHT22;38503;48.544;12.142;2022-11-15T17:18:12;7.90;99.90
52609;DHT22;38503;48.544;12.142;2022-11-15T17:20:41;7.70;99.90
52609;DHT22;38503;48.544;12.142;2022-11-15T17:23:12;7.70;99.90
52609;DHT22;38503;48.544;12.142;2022-11-15T17:25:40;7.70;99.90
52609;DHT22;38503;48.544;12.142;2022-11-15T17:28:07;7.70;99.90
52609;DHT22;38503;48.544;12.142;2022-11-15T17:30:34;7.70;99.90
52609;DHT22;38503;48.544;12.142;2022-11-15T17:33:01;7.60;99.90
52609;DHT22;38503;48.544;12.142;2022-11-15T17:35:28;7.50;99.90
52609;DHT22;38503;48.544;12.142;2022-11-15T17:37:55;7.70;99.90
52609;DHT22;38503;48.544;12.142;2022-11-15T17:40:22;7.60;99.90
52609;DHT22;38503;48.544;12.142;2022-11-15T17:42:48;7.70;99.90
52609;DHT22;38503;48.544;12.142;2022-11-15T17:45:15;7.60;99.90
52609;DHT22;38503;48.544;12.142;2022-11-15T17:47:42;7.40;99.90
52609;DHT22;38503;48.544;12.142;2022-11-15T17:50:09;7.30;99.90